x

Southeast Bering Sea -205nm Wnw Of Dutch Harbor, Ak (46073) Wave Buoy

8:50 - Mon 5th Dec 2016 All times are UTC.

  • Sig Wave height 9.5ft
  • Swell Direction
  • Peak Period 14s
  • Average Period 8s
  • Wind
    11mph, 13mph gusts
  • Sea Temp 42°f
  • Ar Temp 39°f
  • Sea Pressure 1014.8mb

More Historic Weather Station data

Upgrade to MSW Pro to gain access to the past 30 days of data for over 8000 Wavebouys and Weather Stations around the globe.

Join Pro

Comparision Forecast

View Surf forecast
   
Seg 12/05 8:50 9.5ft 14s 8s 11 13 mph 1014.8mb 42f 39f
7:50 8.5ft 14s 7s 16 18 mph 1014.4mb 42f 40f
6:50 8ft 13s 7s 11 13 mph 1014.4mb 42f 39f
5:50 9ft 15s 7s 11 13 mph 1014.2mb 42f 37f
4:50 9ft 13s 7s 13 18 mph 1013.8mb 42f 40f
3:50 9.5ft 12s 7s 16 20 mph 1013.4mb 42f 40f
2:50 10ft 13s 7s 13 18 mph 1013.1mb 42f 38f
1:50 10.5ft 10s 7s 20 27 mph 1012.5mb 42f 38f
12:50 11ft 13s 8s 20 25 mph 1012.2mb 42f 40f
Dom 12/04 11:50 13ft 12s 8s 22 29 mph 1012mb 42f 40f
10:50 13.5ft 11s 8s 25 29 mph 1011.6mb 42f 40f
9:50 13ft 12s 8s 27 31 mph 1011.2mb 42f 39f
8:50 14.5ft 10s 8s 18 22 mph 1010.7mb 42f 40f
7:50 14ft 11s 8s 20 25 mph 1010mb 42f 40f
6:50 15.5ft 10s 8s 29 36 mph 1008.9mb 42f 40f
4:50 18ft 10s 8s 29 38 mph 1007.1mb 42f 41f
3:50 15.5ft 11s 8s 34 43 mph 1007.4mb 42f 41f
2:50 17.5ft 11s 8s 34 40 mph 1008.4mb 42f 41f
1:50 17.5ft 10s 8s 31 40 mph 1009.6mb 42f 41f
12:50 16.5ft 11s 8s 34 43 mph 1010.4mb 42f 40f
11:50 17.5ft 10s 8s 31 40 mph 1011.2mb 42f 41f
10:50 17.5ft 11s 8s 36 43 mph 1011.9mb 42f 40f
9:50 16.5ft 10s 8s 34 40 mph 1012.5mb 42f 41f
8:50 18ft 10s 8s 36 43 mph 1013mb 42f 41f
7:50 17.5ft 10s 8s 36 43 mph 1013.8mb 42f 40f
6:50 16.5ft 10s 8s 31 38 mph 1014.7mb 42f 40f
5:50 14ft 9s 7s 34 43 mph 1015.4mb 42f 40f
4:50 14ft 8s 7s 31 43 mph 1016.2mb 42f 40f
3:50 12.5ft 8s 7s 31 38 mph 1016.5mb 42f 40f
2:50 10ft 8s 6s 31 40 mph 1017.1mb 42f 41f
1:50 9.5ft 7s 6s 31 38 mph 1017.6mb 42f 41f
12:50 9ft 7s 6s 29 36 mph 1018.5mb 42f 41f
Sáb 12/03 11:50 7ft 6s 5s 29 34 mph 1019.6mb 42f 41f
10:50 7.5ft 6s 6s 29 36 mph 1020.5mb 42f 41f
9:50 7ft 6s 5s 27 34 mph 1021.1mb 42f 41f
8:50 7ft 6s 5s 27 31 mph 1021.8mb 42f 41f
7:50 6.5ft 8s 5s 25 29 mph 1022.4mb 42f 40f
6:50 7ft 9s 6s 25 31 mph 1022.9mb 42f 40f
5:50 7ft 10s 6s 22 27 mph 1023.5mb 42f 39f
4:50 7ft 10s 7s 18 22 mph 1024mb 42f 38f
3:50 8ft 9s 7s 13 18 mph 1024.7mb 42f 38f
2:50 9ft 10s 7s 16 18 mph 1025.2mb 42f 37f
1:50 9ft 8s 7s 16 20 mph 1025.6mb 42f 37f
12:50 10.5ft 10s 7s 18 22 mph 1025.9mb 42f 37f
11:50 10.5ft 11s 7s 16 20 mph 1025.7mb 42f 37f
10:50 13ft 11s 8s 18 22 mph 1025.4mb 42f 37f
9:50 12ft 11s 7s 22 27 mph 1025mb 42f 37f
8:50 13ft 11s 8s 27 34 mph 1024.5mb 42f 37f
7:50 14ft 12s 8s 25 31 mph 1023.8mb 42f 37f
6:50 15.5ft 12s 8s 27 31 mph 1023mb 42f 38f
5:50 15.5ft 12s 8s 27 34 mph 1022.5mb 42f 37f
4:50 15.5ft 13s 8s 27 31 mph 1021.8mb 42f 37f
3:50 16.5ft 13s 8s 29 36 mph 1020.7mb 42f 38f
2:50 20.5ft 13s 9s 29 38 mph 1019.8mb 42f 38f
1:50 17.5ft 11s 9s 29 36 mph 1019.1mb 42f 36f
12:50 17.5ft 11s 8s 27 38 mph 1018.3mb 42f 38f
Sex 12/02 11:50 17ft 11s 8s 29 36 mph 1017.6mb 42f 38f
10:50 15.5ft 11s 8s 31 38 mph 1016.5mb 42f 38f
9:50 13ft 10s 7s 36 47 mph 1016.5mb 42f 34f
8:50 12ft 9s 7s 31 40 mph 1017.4mb 42f 36f
7:50 11ft 8s 7s 29 36 mph 1017.6mb 42f 35f
6:50 10ft 8s 6s 27 34 mph 1017.5mb 42f 33f
5:50 10ft 8s 6s 29 34 mph 1016.8mb 42f 36f
4:50 10.5ft 8s 6s 25 29 mph 1016.8mb 42f 34f
3:50 9.5ft 7s 6s 27 34 mph 1016.6mb 42f 37f
2:50 9.5ft 7s 6s 20 22 mph 1016.9mb 42f 33f
1:50 9ft 6s 6s 34 40 mph 1017.1mb 42f 35f
12:50 8ft 9s 6s 34 40 mph 1017.6mb 42f 36f
11:50 8ft 9s 6s 29 36 mph 1018.9mb 42f 37f
10:50 8ft 9s 6s 27 31 mph 1020mb 42f 37f
9:50 8.5ft 9s 7s 22 29 mph 1020.8mb 42f 36f
8:50 9ft 9s 7s 18 22 mph 1021.3mb 42f 35f
7:50 9ft 10s 7s 16 20 mph 1021.7mb 42f 34f
6:50 9.5ft 10s 7s 11 18 mph 1021.5mb 42f 34f
5:50 11ft 8s 7s 13 18 mph 1021.2mb 42f 34f
4:50 11ft 8s 7s 16 20 mph 1020.6mb 42f 34f
3:50 11.5ft 9s 7s 18 25 mph 1019.7mb 42f 34f
2:50 13ft 8s 7s 22 31 mph 1018.7mb 42f 34f
1:50 13ft 10s 7s 27 31 mph 1017.5mb 42f 33f
12:50 12ft 10s 7s 29 38 mph 1016.4mb 42f 33f
Qui 12/01 11:50 11ft 11s 7s 29 36 mph 1015.4mb 42f 35f
10:50 11ft 11s 7s 29 34 mph 1014.6mb 42f 33f
9:50 11ft 11s 8s 27 34 mph 1014.2mb 42f 32f
8:50 10ft 10s 7s 16 20 mph 1013.7mb 42f 31f
7:50 13ft 10s 8s 9 13 mph 1013.1mb 42f 31f
6:50 12ft 11s 8s 13 16 mph 1012.2mb 42f 32f
4:50 13ft 10s 8s 20 22 mph 1010.4mb 42f 33f
3:50 14ft 11s 8s 22 29 mph 1009.3mb 42f 32f
2:50 15ft 11s 8s 25 34 mph 1008.3mb 42f 32f
1:50 14ft 9s 7s 27 34 mph 1007.7mb 42f 32f
12:50 16.5ft 11s 8s 31 38 mph 1006.8mb 42f 32f
11:50 13.5ft 11s 7s 29 36 mph 1006.2mb 42f 31f
10:50 15.5ft 11s 8s 29 36 mph 1005.3mb 42f 31f